sensor_id;sensor_type;location;lat;lon;timestamp;P1;durP1;ratioP1;P2;durP2;ratioP2
13374;SDS011;6756;51.354;15.754;2022-10-29T00:00:33;7.93;;;2.50;;
13374;SDS011;6756;51.354;15.754;2022-10-29T00:04:34;6.97;;;2.97;;
13374;SDS011;6756;51.354;15.754;2022-10-29T00:08:35;5.83;;;2.67;;
13374;SDS011;6756;51.354;15.754;2022-10-29T00:12:37;6.83;;;2.77;;
13374;SDS011;6756;51.354;15.754;2022-10-29T00:16:38;6.80;;;2.57;;
13374;SDS011;6756;51.354;15.754;2022-10-29T00:20:39;9.00;;;2.57;;
13374;SDS011;6756;51.354;15.754;2022-10-29T00:24:40;6.53;;;2.60;;
13374;SDS011;6756;51.354;15.754;2022-10-29T00:28:41;8.20;;;2.93;;
13374;SDS011;6756;51.354;15.754;2022-10-29T00:32:41;4.87;;;2.77;;
13374;SDS011;6756;51.354;15.754;2022-10-29T00:36:42;7.60;;;2.53;;
13374;SDS011;6756;51.354;15.754;2022-10-29T00:40:43;9.13;;;3.07;;
13374;SDS011;6756;51.354;15.754;2022-10-29T00:44:44;5.20;;;2.87;;
13374;SDS011;6756;51.354;15.754;2022-10-29T00:48:45;6.33;;;3.03;;
13374;SDS011;6756;51.354;15.754;2022-10-29T00:52:48;5.97;;;3.13;;
13374;SDS011;6756;51.354;15.754;2022-10-29T00:56:51;5.43;;;2.80;;
13374;SDS011;6756;51.354;15.754;2022-10-29T01:00:56;7.07;;;2.93;;
13374;SDS011;6756;51.354;15.754;2022-10-29T01:04:58;8.23;;;3.10;;
13374;SDS011;6756;51.354;15.754;2022-10-29T01:09:00;7.73;;;3.27;;
13374;SDS011;6756;51.354;15.754;2022-10-29T01:13:36;7.80;;;3.37;;
13374;SDS011;6756;51.354;15.754;2022-10-29T01:17:40;8.10;;;3.07;;
13374;SDS011;6756;51.354;15.754;2022-10-29T01:21:44;6.47;;;3.13;;
13374;SDS011;6756;51.354;15.754;2022-10-29T01:43:32;7.77;;;3.47;;
13374;SDS011;6756;51.354;15.754;2022-10-29T01:47:53;7.97;;;3.60;;
13374;SDS011;6756;51.354;15.754;2022-10-29T01:51:59;7.67;;;3.67;;
13374;SDS011;6756;51.354;15.754;2022-10-29T01:56:02;5.53;;;3.40;;
13374;SDS011;6756;51.354;15.754;2022-10-29T02:00:05;5.33;;;3.57;;
13374;SDS011;6756;51.354;15.754;2022-10-29T02:09:16;9.97;;;4.00;;
13374;SDS011;6756;51.354;15.754;2022-10-29T02:13:23;7.93;;;3.70;;
13374;SDS011;6756;51.354;15.754;2022-10-29T02:17:30;7.70;;;3.83;;
13374;SDS011;6756;51.354;15.754;2022-10-29T02:21:32;7.27;;;3.20;;
13374;SDS011;6756;51.354;15.754;2022-10-29T02:25:33;9.07;;;4.07;;
13374;SDS011;6756;51.354;15.754;2022-10-29T02:29:34;10.73;;;4.20;;
13374;SDS011;6756;51.354;15.754;2022-10-29T02:33:35;6.97;;;3.53;;
13374;SDS011;6756;51.354;15.754;2022-10-29T02:37:36;8.70;;;3.73;;
13374;SDS011;6756;51.354;15.754;2022-10-29T02:41:37;7.30;;;3.97;;
13374;SDS011;6756;51.354;15.754;2022-10-29T02:45:37;7.90;;;3.90;;
13374;SDS011;6756;51.354;15.754;2022-10-29T02:49:38;7.57;;;3.70;;
13374;SDS011;6756;51.354;15.754;2022-10-29T02:53:39;8.07;;;3.63;;
13374;SDS011;6756;51.354;15.754;2022-10-29T02:57:43;8.53;;;4.50;;
13374;SDS011;6756;51.354;15.754;2022-10-29T03:01:44;7.37;;;4.20;;
13374;SDS011;6756;51.354;15.754;2022-10-29T03:05:45;8.87;;;3.97;;
13374;SDS011;6756;51.354;15.754;2022-10-29T03:09:46;5.93;;;3.77;;
13374;SDS011;6756;51.354;15.754;2022-10-29T03:13:46;9.03;;;4.33;;
13374;SDS011;6756;51.354;15.754;2022-10-29T03:17:47;7.20;;;4.13;;
13374;SDS011;6756;51.354;15.754;2022-10-29T03:21:48;5.93;;;4.07;;
13374;SDS011;6756;51.354;15.754;2022-10-29T03:25:52;9.17;;;4.10;;
13374;SDS011;6756;51.354;15.754;2022-10-29T03:29:53;6.43;;;4.17;;
13374;SDS011;6756;51.354;15.754;2022-10-29T03:33:54;7.87;;;4.47;;
13374;SDS011;6756;51.354;15.754;2022-10-29T03:37:55;8.67;;;4.90;;
13374;SDS011;6756;51.354;15.754;2022-10-29T03:41:56;9.13;;;4.77;;
13374;SDS011;6756;51.354;15.754;2022-10-29T03:45:56;10.33;;;4.63;;
13374;SDS011;6756;51.354;15.754;2022-10-29T03:49:57;8.97;;;4.43;;
13374;SDS011;6756;51.354;15.754;2022-10-29T03:53:58;6.30;;;3.80;;
13374;SDS011;6756;51.354;15.754;2022-10-29T03:57:59;7.27;;;4.33;;
13374;SDS011;6756;51.354;15.754;2022-10-29T04:01:59;8.67;;;4.57;;
13374;SDS011;6756;51.354;15.754;2022-10-29T04:06:01;5.60;;;4.07;;
13374;SDS011;6756;51.354;15.754;2022-10-29T04:10:08;8.53;;;4.30;;
13374;SDS011;6756;51.354;15.754;2022-10-29T04:14:09;7.63;;;4.40;;
13374;SDS011;6756;51.354;15.754;2022-10-29T04:18:10;7.03;;;4.57;;
13374;SDS011;6756;51.354;15.754;2022-10-29T04:22:11;9.17;;;4.43;;
13374;SDS011;6756;51.354;15.754;2022-10-29T04:26:12;10.07;;;4.40;;
13374;SDS011;6756;51.354;15.754;2022-10-29T04:30:13;7.93;;;4.27;;
13374;SDS011;6756;51.354;15.754;2022-10-29T04:34:14;7.70;;;4.40;;
13374;SDS011;6756;51.354;15.754;2022-10-29T04:38:14;8.77;;;5.03;;
13374;SDS011;6756;51.354;15.754;2022-10-29T04:42:15;9.50;;;4.70;;
13374;SDS011;6756;51.354;15.754;2022-10-29T04:46:16;7.80;;;4.57;;
13374;SDS011;6756;51.354;15.754;2022-10-29T04:50:17;12.73;;;5.17;;
13374;SDS011;6756;51.354;15.754;2022-10-29T04:54:17;7.87;;;5.10;;
13374;SDS011;6756;51.354;15.754;2022-10-29T04:58:18;10.30;;;5.10;;
13374;SDS011;6756;51.354;15.754;2022-10-29T05:02:19;9.67;;;4.63;;
13374;SDS011;6756;51.354;15.754;2022-10-29T05:06:20;9.60;;;4.63;;
13374;SDS011;6756;51.354;15.754;2022-10-29T05:10:21;12.03;;;4.87;;
13374;SDS011;6756;51.354;15.754;2022-10-29T05:14:22;11.43;;;5.03;;
13374;SDS011;6756;51.354;15.754;2022-10-29T05:18:22;8.73;;;4.83;;
13374;SDS011;6756;51.354;15.754;2022-10-29T05:22:23;10.13;;;4.53;;
13374;SDS011;6756;51.354;15.754;2022-10-29T05:26:24;5.53;;;4.37;;
13374;SDS011;6756;51.354;15.754;2022-10-29T05:30:25;9.27;;;4.50;;
13374;SDS011;6756;51.354;15.754;2022-10-29T05:34:26;9.23;;;5.40;;
13374;SDS011;6756;51.354;15.754;2022-10-29T05:38:26;8.77;;;4.83;;
13374;SDS011;6756;51.354;15.754;2022-10-29T05:42:27;8.60;;;5.10;;
13374;SDS011;6756;51.354;15.754;2022-10-29T05:46:28;11.90;;;5.63;;
13374;SDS011;6756;51.354;15.754;2022-10-29T05:50:29;10.20;;;4.73;;
13374;SDS011;6756;51.354;15.754;2022-10-29T05:54:31;9.17;;;5.27;;
13374;SDS011;6756;51.354;15.754;2022-10-29T05:58:32;10.77;;;5.17;;
13374;SDS011;6756;51.354;15.754;2022-10-29T06:02:33;8.20;;;4.57;;
13374;SDS011;6756;51.354;15.754;2022-10-29T06:06:33;10.43;;;5.50;;
13374;SDS011;6756;51.354;15.754;2022-10-29T06:10:34;6.50;;;4.43;;
13374;SDS011;6756;51.354;15.754;2022-10-29T06:14:35;6.40;;;4.27;;
13374;SDS011;6756;51.354;15.754;2022-10-29T06:18:36;13.33;;;5.17;;
13374;SDS011;6756;51.354;15.754;2022-10-29T06:22:37;8.80;;;5.33;;
13374;SDS011;6756;51.354;15.754;2022-10-29T06:26:38;11.60;;;5.70;;
13374;SDS011;6756;51.354;15.754;2022-10-29T06:30:39;8.00;;;4.73;;
13374;SDS011;6756;51.354;15.754;2022-10-29T06:34:44;7.47;;;4.90;;
13374;SDS011;6756;51.354;15.754;2022-10-29T06:38:45;6.73;;;4.83;;
13374;SDS011;6756;51.354;15.754;2022-10-29T06:42:46;8.37;;;5.00;;
13374;SDS011;6756;51.354;15.754;2022-10-29T06:46:47;9.63;;;5.03;;
13374;SDS011;6756;51.354;15.754;2022-10-29T06:50:48;8.27;;;4.97;;
13374;SDS011;6756;51.354;15.754;2022-10-29T06:54:49;10.00;;;5.37;;
13374;SDS011;6756;51.354;15.754;2022-10-29T06:58:50;10.03;;;5.43;;
13374;SDS011;6756;51.354;15.754;2022-10-29T07:02:51;9.87;;;5.37;;
13374;SDS011;6756;51.354;15.754;2022-10-29T07:06:51;8.53;;;5.70;;
13374;SDS011;6756;51.354;15.754;2022-10-29T07:10:53;9.90;;;4.90;;
13374;SDS011;6756;51.354;15.754;2022-10-29T07:14:54;8.60;;;5.27;;
13374;SDS011;6756;51.354;15.754;2022-10-29T07:18:55;10.77;;;5.43;;
13374;SDS011;6756;51.354;15.754;2022-10-29T07:22:56;10.73;;;5.23;;
13374;SDS011;6756;51.354;15.754;2022-10-29T07:26:58;8.57;;;5.03;;
13374;SDS011;6756;51.354;15.754;2022-10-29T07:31:00;10.03;;;5.90;;
13374;SDS011;6756;51.354;15.754;2022-10-29T07:35:01;8.73;;;5.43;;
13374;SDS011;6756;51.354;15.754;2022-10-29T07:39:02;13.03;;;5.77;;
13374;SDS011;6756;51.354;15.754;2022-10-29T07:43:03;12.33;;;5.13;;
13374;SDS011;6756;51.354;15.754;2022-10-29T07:47:04;11.53;;;6.10;;
13374;SDS011;6756;51.354;15.754;2022-10-29T07:51:05;9.93;;;6.03;;
13374;SDS011;6756;51.354;15.754;2022-10-29T07:55:06;12.23;;;5.87;;
13374;SDS011;6756;51.354;15.754;2022-10-29T07:59:07;7.40;;;5.30;;
13374;SDS011;6756;51.354;15.754;2022-10-29T08:03:09;7.90;;;5.30;;
13374;SDS011;6756;51.354;15.754;2022-10-29T08:07:11;10.47;;;5.33;;
13374;SDS011;6756;51.354;15.754;2022-10-29T08:11:12;9.20;;;5.60;;
13374;SDS011;6756;51.354;15.754;2022-10-29T08:15:12;9.03;;;5.50;;
13374;SDS011;6756;51.354;15.754;2022-10-29T08:19:13;9.27;;;5.17;;
13374;SDS011;6756;51.354;15.754;2022-10-29T08:23:14;9.33;;;4.97;;
13374;SDS011;6756;51.354;15.754;2022-10-29T08:27:15;9.43;;;5.20;;
13374;SDS011;6756;51.354;15.754;2022-10-29T08:31:16;10.67;;;5.20;;
13374;SDS011;6756;51.354;15.754;2022-10-29T08:35:18;7.03;;;4.63;;
13374;SDS011;6756;51.354;15.754;2022-10-29T08:39:19;12.57;;;5.67;;
13374;SDS011;6756;51.354;15.754;2022-10-29T08:43:32;10.63;;;5.00;;
13374;SDS011;6756;51.354;15.754;2022-10-29T08:52:06;8.33;;;4.57;;
13374;SDS011;6756;51.354;15.754;2022-10-29T08:56:21;10.10;;;4.80;;
13374;SDS011;6756;51.354;15.754;2022-10-29T09:00:31;6.67;;;4.87;;
13374;SDS011;6756;51.354;15.754;2022-10-29T09:04:36;9.00;;;4.43;;
13374;SDS011;6756;51.354;15.754;2022-10-29T09:09:00;7.83;;;4.30;;
13374;SDS011;6756;51.354;15.754;2022-10-29T09:17:35;12.30;;;5.57;;
13374;SDS011;6756;51.354;15.754;2022-10-29T09:26:09;9.00;;;5.10;;
13374;SDS011;6756;51.354;15.754;2022-10-29T09:30:31;6.27;;;4.00;;
13374;SDS011;6756;51.354;15.754;2022-10-29T09:34:55;9.00;;;4.10;;
13374;SDS011;6756;51.354;15.754;2022-10-29T09:39:03;10.07;;;4.60;;
13374;SDS011;6756;51.354;15.754;2022-10-29T09:43:23;8.93;;;4.87;;
13374;SDS011;6756;51.354;15.754;2022-10-29T09:52:29;7.90;;;3.60;;
13374;SDS011;6756;51.354;15.754;2022-10-29T09:56:34;9.03;;;4.60;;
13374;SDS011;6756;51.354;15.754;2022-10-29T10:00:37;7.97;;;4.30;;
13374;SDS011;6756;51.354;15.754;2022-10-29T10:04:39;11.93;;;4.50;;
13374;SDS011;6756;51.354;15.754;2022-10-29T10:09:00;10.93;;;4.37;;
13374;SDS011;6756;51.354;15.754;2022-10-29T10:13:03;8.33;;;3.87;;
13374;SDS011;6756;51.354;15.754;2022-10-29T10:17:07;9.40;;;4.77;;
13374;SDS011;6756;51.354;15.754;2022-10-29T10:21:27;9.60;;;4.27;;
13374;SDS011;6756;51.354;15.754;2022-10-29T10:25:33;5.53;;;4.13;;
13374;SDS011;6756;51.354;15.754;2022-10-29T10:29:38;8.37;;;4.37;;
13374;SDS011;6756;51.354;15.754;2022-10-29T10:33:43;12.93;;;4.57;;
13374;SDS011;6756;51.354;15.754;2022-10-29T10:37:52;10.33;;;4.87;;
13374;SDS011;6756;51.354;15.754;2022-10-29T10:41:53;10.67;;;4.90;;
13374;SDS011;6756;51.354;15.754;2022-10-29T10:45:57;8.50;;;5.17;;
13374;SDS011;6756;51.354;15.754;2022-10-29T10:50:10;7.13;;;4.33;;
13374;SDS011;6756;51.354;15.754;2022-10-29T10:54:35;11.00;;;4.70;;
13374;SDS011;6756;51.354;15.754;2022-10-29T10:58:44;10.40;;;4.53;;
13374;SDS011;6756;51.354;15.754;2022-10-29T11:02:55;9.57;;;4.93;;
13374;SDS011;6756;51.354;15.754;2022-10-29T11:07:05;6.37;;;5.03;;
13374;SDS011;6756;51.354;15.754;2022-10-29T11:11:32;10.40;;;5.87;;
13374;SDS011;6756;51.354;15.754;2022-10-29T11:15:37;8.13;;;4.50;;
13374;SDS011;6756;51.354;15.754;2022-10-29T11:19:47;12.27;;;5.60;;
13374;SDS011;6756;51.354;15.754;2022-10-29T11:24:02;17.67;;;4.97;;
13374;SDS011;6756;51.354;15.754;2022-10-29T11:36:37;8.43;;;4.13;;
13374;SDS011;6756;51.354;15.754;2022-10-29T11:40:50;9.47;;;4.20;;
13374;SDS011;6756;51.354;15.754;2022-10-29T11:44:57;10.40;;;4.50;;
13374;SDS011;6756;51.354;15.754;2022-10-29T11:53:27;9.17;;;3.80;;
13374;SDS011;6756;51.354;15.754;2022-10-29T12:01:56;11.97;;;5.00;;
13374;SDS011;6756;51.354;15.754;2022-10-29T12:10:44;8.47;;;4.37;;
13374;SDS011;6756;51.354;15.754;2022-10-29T12:15:14;6.53;;;3.90;;
13374;SDS011;6756;51.354;15.754;2022-10-29T12:19:40;12.87;;;4.70;;
13374;SDS011;6756;51.354;15.754;2022-10-29T12:24:01;8.67;;;4.90;;
13374;SDS011;6756;51.354;15.754;2022-10-29T12:28:20;12.37;;;4.80;;
13374;SDS011;6756;51.354;15.754;2022-10-29T12:32:43;9.20;;;4.07;;
13374;SDS011;6756;51.354;15.754;2022-10-29T12:41:25;11.37;;;4.10;;
13374;SDS011;6756;51.354;15.754;2022-10-29T12:45:47;9.87;;;4.33;;
13374;SDS011;6756;51.354;15.754;2022-10-29T13:02:52;8.30;;;4.13;;
13374;SDS011;6756;51.354;15.754;2022-10-29T13:10:58;6.60;;;3.70;;
13374;SDS011;6756;51.354;15.754;2022-10-29T13:15:02;8.27;;;3.83;;
13374;SDS011;6756;51.354;15.754;2022-10-29T13:19:16;7.17;;;3.60;;
13374;SDS011;6756;51.354;15.754;2022-10-29T13:39:28;15.23;;;4.90;;
13374;SDS011;6756;51.354;15.754;2022-10-29T13:43:30;5.67;;;3.80;;
13374;SDS011;6756;51.354;15.754;2022-10-29T13:47:31;15.47;;;4.57;;
13374;SDS011;6756;51.354;15.754;2022-10-29T13:51:39;11.23;;;4.67;;
13374;SDS011;6756;51.354;15.754;2022-10-29T13:55:44;10.90;;;4.50;;
13374;SDS011;6756;51.354;15.754;2022-10-29T14:03:58;13.90;;;5.10;;
13374;SDS011;6756;51.354;15.754;2022-10-29T14:12:26;9.67;;;4.77;;
13374;SDS011;6756;51.354;15.754;2022-10-29T14:16:30;11.50;;;5.57;;
13374;SDS011;6756;51.354;15.754;2022-10-29T14:20:32;10.43;;;4.87;;
13374;SDS011;6756;51.354;15.754;2022-10-29T14:24:36;16.23;;;5.43;;
13374;SDS011;6756;51.354;15.754;2022-10-29T14:28:38;8.60;;;4.83;;
13374;SDS011;6756;51.354;15.754;2022-10-29T14:32:39;11.00;;;4.70;;
13374;SDS011;6756;51.354;15.754;2022-10-29T14:36:43;13.37;;;5.27;;
13374;SDS011;6756;51.354;15.754;2022-10-29T14:40:47;8.67;;;4.60;;
13374;SDS011;6756;51.354;15.754;2022-10-29T14:44:48;7.03;;;4.03;;
13374;SDS011;6756;51.354;15.754;2022-10-29T14:49:04;6.43;;;3.97;;
13374;SDS011;6756;51.354;15.754;2022-10-29T14:53:24;6.33;;;3.53;;
13374;SDS011;6756;51.354;15.754;2022-10-29T14:57:31;8.20;;;4.17;;
13374;SDS011;6756;51.354;15.754;2022-10-29T15:01:42;7.80;;;4.20;;
13374;SDS011;6756;51.354;15.754;2022-10-29T15:05:49;5.67;;;3.90;;
13374;SDS011;6756;51.354;15.754;2022-10-29T15:10:00;4.97;;;3.77;;
13374;SDS011;6756;51.354;15.754;2022-10-29T15:14:25;7.03;;;4.17;;
13374;SDS011;6756;51.354;15.754;2022-10-29T15:18:37;10.77;;;4.43;;
13374;SDS011;6756;51.354;15.754;2022-10-29T15:22:38;8.50;;;4.40;;
13374;SDS011;6756;51.354;15.754;2022-10-29T15:26:53;6.90;;;4.67;;
13374;SDS011;6756;51.354;15.754;2022-10-29T15:30:59;5.50;;;4.30;;
13374;SDS011;6756;51.354;15.754;2022-10-29T15:35:01;6.90;;;4.53;;
13374;SDS011;6756;51.354;15.754;2022-10-29T15:39:17;6.53;;;4.67;;
13374;SDS011;6756;51.354;15.754;2022-10-29T15:43:26;11.63;;;6.13;;
13374;SDS011;6756;51.354;15.754;2022-10-29T15:47:29;9.90;;;5.07;;
13374;SDS011;6756;51.354;15.754;2022-10-29T15:51:29;6.07;;;4.53;;
13374;SDS011;6756;51.354;15.754;2022-10-29T15:55:31;5.80;;;4.03;;
13374;SDS011;6756;51.354;15.754;2022-10-29T15:59:36;6.43;;;4.87;;
13374;SDS011;6756;51.354;15.754;2022-10-29T16:03:38;11.37;;;5.07;;
13374;SDS011;6756;51.354;15.754;2022-10-29T16:07:40;8.00;;;5.10;;
13374;SDS011;6756;51.354;15.754;2022-10-29T16:11:42;9.70;;;6.20;;
13374;SDS011;6756;51.354;15.754;2022-10-29T16:15:43;9.90;;;5.73;;
13374;SDS011;6756;51.354;15.754;2022-10-29T16:19:44;10.63;;;6.10;;
13374;SDS011;6756;51.354;15.754;2022-10-29T16:23:45;12.50;;;6.63;;
13374;SDS011;6756;51.354;15.754;2022-10-29T16:27:47;11.73;;;6.07;;
13374;SDS011;6756;51.354;15.754;2022-10-29T16:31:48;9.83;;;6.23;;
13374;SDS011;6756;51.354;15.754;2022-10-29T16:35:49;10.83;;;6.73;;
13374;SDS011;6756;51.354;15.754;2022-10-29T16:39:50;12.20;;;6.20;;
13374;SDS011;6756;51.354;15.754;2022-10-29T16:43:51;8.43;;;6.47;;
13374;SDS011;6756;51.354;15.754;2022-10-29T16:47:52;7.97;;;5.43;;
13374;SDS011;6756;51.354;15.754;2022-10-29T16:51:53;8.87;;;6.07;;
13374;SDS011;6756;51.354;15.754;2022-10-29T16:55:54;7.63;;;5.30;;
13374;SDS011;6756;51.354;15.754;2022-10-29T16:59:59;10.07;;;5.73;;
13374;SDS011;6756;51.354;15.754;2022-10-29T17:04:00;12.73;;;6.50;;
13374;SDS011;6756;51.354;15.754;2022-10-29T17:08:01;8.10;;;6.13;;
13374;SDS011;6756;51.354;15.754;2022-10-29T17:12:02;8.83;;;6.27;;
13374;SDS011;6756;51.354;15.754;2022-10-29T17:16:10;8.03;;;5.40;;
13374;SDS011;6756;51.354;15.754;2022-10-29T17:20:13;9.10;;;6.47;;
13374;SDS011;6756;51.354;15.754;2022-10-29T17:24:14;12.03;;;6.23;;
13374;SDS011;6756;51.354;15.754;2022-10-29T17:28:15;8.87;;;7.17;;
13374;SDS011;6756;51.354;15.754;2022-10-29T17:32:16;11.33;;;7.80;;
13374;SDS011;6756;51.354;15.754;2022-10-29T17:36:17;10.93;;;8.30;;
13374;SDS011;6756;51.354;15.754;2022-10-29T17:40:18;14.37;;;9.10;;
13374;SDS011;6756;51.354;15.754;2022-10-29T17:44:19;12.87;;;9.00;;
13374;SDS011;6756;51.354;15.754;2022-10-29T17:48:20;13.87;;;9.53;;
13374;SDS011;6756;51.354;15.754;2022-10-29T17:52:21;14.43;;;9.47;;
13374;SDS011;6756;51.354;15.754;2022-10-29T17:56:22;19.17;;;10.13;;
13374;SDS011;6756;51.354;15.754;2022-10-29T18:00:23;15.60;;;9.00;;
13374;SDS011;6756;51.354;15.754;2022-10-29T18:04:24;15.17;;;8.93;;
13374;SDS011;6756;51.354;15.754;2022-10-29T18:08:25;17.13;;;10.20;;
13374;SDS011;6756;51.354;15.754;2022-10-29T18:12:26;15.03;;;9.47;;
13374;SDS011;6756;51.354;15.754;2022-10-29T18:16:28;12.33;;;9.83;;
13374;SDS011;6756;51.354;15.754;2022-10-29T18:20:32;12.53;;;9.07;;
13374;SDS011;6756;51.354;15.754;2022-10-29T18:24:32;14.03;;;9.87;;
13374;SDS011;6756;51.354;15.754;2022-10-29T18:28:33;15.33;;;9.63;;
13374;SDS011;6756;51.354;15.754;2022-10-29T18:32:35;12.90;;;9.87;;
13374;SDS011;6756;51.354;15.754;2022-10-29T18:36:36;18.27;;;11.50;;
13374;SDS011;6756;51.354;15.754;2022-10-29T18:40:40;18.80;;;13.30;;
13374;SDS011;6756;51.354;15.754;2022-10-29T18:44:41;17.93;;;11.87;;
13374;SDS011;6756;51.354;15.754;2022-10-29T18:48:43;21.60;;;11.80;;
13374;SDS011;6756;51.354;15.754;2022-10-29T18:52:45;16.27;;;11.13;;
13374;SDS011;6756;51.354;15.754;2022-10-29T18:56:46;19.53;;;12.00;;
13374;SDS011;6756;51.354;15.754;2022-10-29T19:00:48;17.40;;;11.73;;
13374;SDS011;6756;51.354;15.754;2022-10-29T19:04:49;22.70;;;12.37;;
13374;SDS011;6756;51.354;15.754;2022-10-29T19:08:50;19.20;;;12.87;;
13374;SDS011;6756;51.354;15.754;2022-10-29T19:12:51;21.80;;;12.83;;
13374;SDS011;6756;51.354;15.754;2022-10-29T19:16:52;20.67;;;13.53;;
13374;SDS011;6756;51.354;15.754;2022-10-29T19:20:53;19.63;;;11.87;;
13374;SDS011;6756;51.354;15.754;2022-10-29T19:24:54;17.40;;;12.47;;
13374;SDS011;6756;51.354;15.754;2022-10-29T19:28:54;19.93;;;12.90;;
13374;SDS011;6756;51.354;15.754;2022-10-29T19:32:57;18.67;;;12.07;;
13374;SDS011;6756;51.354;15.754;2022-10-29T19:36:58;18.63;;;12.43;;
13374;SDS011;6756;51.354;15.754;2022-10-29T19:40:59;19.80;;;12.30;;
13374;SDS011;6756;51.354;15.754;2022-10-29T19:45:00;19.87;;;12.10;;
13374;SDS011;6756;51.354;15.754;2022-10-29T19:49:01;18.63;;;11.93;;
13374;SDS011;6756;51.354;15.754;2022-10-29T19:53:02;19.67;;;12.10;;
13374;SDS011;6756;51.354;15.754;2022-10-29T19:57:04;20.03;;;12.47;;
13374;SDS011;6756;51.354;15.754;2022-10-29T20:01:06;16.33;;;11.80;;
13374;SDS011;6756;51.354;15.754;2022-10-29T20:05:09;24.87;;;13.30;;
13374;SDS011;6756;51.354;15.754;2022-10-29T20:09:10;19.30;;;12.60;;
13374;SDS011;6756;51.354;15.754;2022-10-29T20:13:11;17.67;;;11.77;;
13374;SDS011;6756;51.354;15.754;2022-10-29T20:17:12;21.13;;;12.17;;
13374;SDS011;6756;51.354;15.754;2022-10-29T20:21:13;15.03;;;11.53;;
13374;SDS011;6756;51.354;15.754;2022-10-29T20:25:14;17.30;;;11.10;;
13374;SDS011;6756;51.354;15.754;2022-10-29T20:29:16;16.27;;;10.60;;
13374;SDS011;6756;51.354;15.754;2022-10-29T20:33:16;18.00;;;10.90;;
13374;SDS011;6756;51.354;15.754;2022-10-29T20:37:17;20.80;;;11.17;;
13374;SDS011;6756;51.354;15.754;2022-10-29T20:41:18;17.80;;;11.00;;
13374;SDS011;6756;51.354;15.754;2022-10-29T20:45:20;17.80;;;11.57;;
13374;SDS011;6756;51.354;15.754;2022-10-29T20:49:21;19.27;;;10.37;;
13374;SDS011;6756;51.354;15.754;2022-10-29T20:53:21;19.33;;;11.57;;
13374;SDS011;6756;51.354;15.754;2022-10-29T20:57:22;17.60;;;10.37;;
13374;SDS011;6756;51.354;15.754;2022-10-29T21:01:23;18.43;;;11.13;;
13374;SDS011;6756;51.354;15.754;2022-10-29T21:05:24;17.47;;;10.90;;
13374;SDS011;6756;51.354;15.754;2022-10-29T21:09:25;19.83;;;11.67;;
13374;SDS011;6756;51.354;15.754;2022-10-29T21:13:26;18.70;;;10.53;;
13374;SDS011;6756;51.354;15.754;2022-10-29T21:17:27;16.87;;;10.70;;
13374;SDS011;6756;51.354;15.754;2022-10-29T21:21:28;15.17;;;11.07;;
13374;SDS011;6756;51.354;15.754;2022-10-29T21:25:29;21.00;;;10.60;;
13374;SDS011;6756;51.354;15.754;2022-10-29T21:29:30;21.07;;;10.90;;
13374;SDS011;6756;51.354;15.754;2022-10-29T21:33:31;15.13;;;9.90;;
13374;SDS011;6756;51.354;15.754;2022-10-29T21:37:32;15.13;;;10.37;;
13374;SDS011;6756;51.354;15.754;2022-10-29T21:41:33;15.90;;;10.10;;
13374;SDS011;6756;51.354;15.754;2022-10-29T21:45:34;17.13;;;10.27;;
13374;SDS011;6756;51.354;15.754;2022-10-29T21:49:35;16.23;;;10.30;;
13374;SDS011;6756;51.354;15.754;2022-10-29T21:53:36;17.77;;;9.43;;
13374;SDS011;6756;51.354;15.754;2022-10-29T21:57:37;14.27;;;10.07;;
13374;SDS011;6756;51.354;15.754;2022-10-29T22:01:41;17.87;;;10.83;;
13374;SDS011;6756;51.354;15.754;2022-10-29T22:05:42;15.20;;;9.40;;
13374;SDS011;6756;51.354;15.754;2022-10-29T22:09:42;15.53;;;9.67;;
13374;SDS011;6756;51.354;15.754;2022-10-29T22:13:43;17.53;;;10.70;;
13374;SDS011;6756;51.354;15.754;2022-10-29T22:17:44;17.60;;;9.87;;
13374;SDS011;6756;51.354;15.754;2022-10-29T22:21:45;16.27;;;9.00;;
13374;SDS011;6756;51.354;15.754;2022-10-29T22:25:49;15.77;;;10.13;;
13374;SDS011;6756;51.354;15.754;2022-10-29T22:29:50;16.27;;;10.03;;
13374;SDS011;6756;51.354;15.754;2022-10-29T22:33:51;16.83;;;9.83;;
13374;SDS011;6756;51.354;15.754;2022-10-29T22:37:52;18.20;;;9.80;;
13374;SDS011;6756;51.354;15.754;2022-10-29T22:41:52;16.17;;;10.20;;
13374;SDS011;6756;51.354;15.754;2022-10-29T22:45:53;16.90;;;9.37;;
13374;SDS011;6756;51.354;15.754;2022-10-29T22:49:54;14.83;;;9.30;;
13374;SDS011;6756;51.354;15.754;2022-10-29T22:53:57;16.47;;;9.83;;
13374;SDS011;6756;51.354;15.754;2022-10-29T22:57:59;13.57;;;9.40;;
13374;SDS011;6756;51.354;15.754;2022-10-29T23:02:00;18.57;;;9.97;;
13374;SDS011;6756;51.354;15.754;2022-10-29T23:06:02;20.73;;;9.70;;
13374;SDS011;6756;51.354;15.754;2022-10-29T23:10:04;13.33;;;9.60;;
13374;SDS011;6756;51.354;15.754;2022-10-29T23:14:05;13.53;;;9.50;;
13374;SDS011;6756;51.354;15.754;2022-10-29T23:18:06;15.13;;;9.30;;
13374;SDS011;6756;51.354;15.754;2022-10-29T23:22:07;13.73;;;8.93;;
13374;SDS011;6756;51.354;15.754;2022-10-29T23:26:07;13.73;;;8.03;;
13374;SDS011;6756;51.354;15.754;2022-10-29T23:30:10;12.80;;;8.13;;
13374;SDS011;6756;51.354;15.754;2022-10-29T23:34:11;17.10;;;9.23;;
13374;SDS011;6756;51.354;15.754;2022-10-29T23:38:12;14.57;;;8.17;;
13374;SDS011;6756;51.354;15.754;2022-10-29T23:42:13;13.00;;;8.27;;
13374;SDS011;6756;51.354;15.754;2022-10-29T23:46:14;14.73;;;8.83;;
13374;SDS011;6756;51.354;15.754;2022-10-29T23:50:15;12.50;;;7.63;;
13374;SDS011;6756;51.354;15.754;2022-10-29T23:54:15;12.87;;;8.13;;
13374;SDS011;6756;51.354;15.754;2022-10-29T23:58:16;12.50;;;7.80;;
